IBE25 LEMD-LTFM
Flight info
| Callsign | IBE25 |
|---|---|
| Flight time | 3h 2m |
| Altitude | 39000 |
| Route | PINAR N870 PONEN/N0489F410 N870 SEROX/N0489F400 N870 BCN N725 OSPOK/N0486F410 DCT NOLVI DCT ORKUM/N0482F400 DCT ELSAG DCT ALG DCT ENSOT DCT GOKEL/N0479F410 DCT PINDO UM603 PEREN UN644 DIGTI UT162 DRAMO |
| Aircraft | A359/H-SDE2E3GHIJ3J4J5LM1ORWXY/LB1D1 |
Departure
| Time | 2026-05-07 17:39 |
|---|---|
| Airport | Adolfo Suárez Madrid–Barajas Airport (LEMD) |
Arrival
| Time | 2026-05-07 20:41 |
|---|---|
| Airport | İstanbul Airport (LTFM) |
| Time | Latitude | Longitude | Altitude | Speed | Heading |
|---|---|---|---|---|---|
| 2026-05-07 16:57 | 40.49219 | -3.56327 | 1970 ft | 0 kts | 270° |
| 2026-05-07 17:33 | 40.49219 | -3.56337 | 1970 ft | 0 kts | 269° |
| 2026-05-07 17:34 | 40.49219 | -3.56350 | 1974 ft | 3 kts | 269° |
| 2026-05-07 17:35 | 40.49224 | -3.56399 | 1972 ft | 7 kts | 290° |
| 2026-05-07 17:35 | 40.49265 | -3.56440 | 1978 ft | 9 kts | 343° |
| 2026-05-07 17:35 | 40.49342 | -3.56450 | 1973 ft | 13 kts | 358° |
| 2026-05-07 17:35 | 40.49448 | -3.56452 | 1973 ft | 17 kts | 360° |
| 2026-05-07 17:36 | 40.49547 | -3.56389 | 1977 ft | 18 kts | 70° |
| 2026-05-07 17:36 | 40.49554 | -3.56201 | 1966 ft | 23 kts | 89° |
| 2026-05-07 17:36 | 40.49553 | -3.56010 | 1966 ft | 14 kts | 90° |
| 2026-05-07 17:36 | 40.49553 | -3.55999 | 1958 ft | 0 kts | 90° |
| 2026-05-07 17:37 | 40.49553 | -3.55997 | 1956 ft | 1 kts | 90° |
| 2026-05-07 17:37 | 40.49552 | -3.55948 | 1967 ft | 9 kts | 92° |
| 2026-05-07 17:38 | 40.49522 | -3.55839 | 1974 ft | 15 kts | 124° |
| 2026-05-07 17:38 | 40.49425 | -3.55726 | 1975 ft | 23 kts | 142° |
| 2026-05-07 17:38 | 40.49384 | -3.55684 | 1978 ft | 0 kts | 143° |
| 2026-05-07 17:38 | 40.49306 | -3.55604 | 1971 ft | 46 kts | 142° |
| 2026-05-07 17:39 | 40.48865 | -3.55155 | 1961 ft | 112 kts | 142° |
| 2026-05-07 17:39 | 40.48095 | -3.54367 | 1939 ft | 167 kts | 141° |
| 2026-05-07 17:39 | 40.47142 | -3.53358 | 2425 ft | 177 kts | 140° |
| 2026-05-07 17:39 | 40.46138 | -3.52326 | 2868 ft | 195 kts | 140° |
| 2026-05-07 17:40 | 40.44996 | -3.51155 | 3241 ft | 221 kts | 140° |
| 2026-05-07 17:40 | 40.43758 | -3.49893 | 3993 ft | 225 kts | 140° |
| 2026-05-07 17:40 | 40.42775 | -3.48327 | 4898 ft | 224 kts | 121° |
| 2026-05-07 17:40 | 40.42048 | -3.46488 | 5665 ft | 230 kts | 117° |
| 2026-05-07 17:41 | 40.41356 | -3.44565 | 6442 ft | 236 kts | 116° |
| 2026-05-07 17:41 | 40.40648 | -3.42601 | 7161 ft | 240 kts | 117° |
| 2026-05-07 17:41 | 40.39934 | -3.40639 | 7988 ft | 243 kts | 118° |
| 2026-05-07 17:41 | 40.39187 | -3.38600 | 8817 ft | 247 kts | 118° |
| 2026-05-07 17:42 | 40.38532 | -3.36486 | 9626 ft | 254 kts | 106° |
| 2026-05-07 17:42 | 40.38527 | -3.34151 | 10346 ft | 262 kts | 75° |
| 2026-05-07 17:42 | 40.39440 | -3.32080 | 10916 ft | 277 kts | 44° |
| 2026-05-07 17:42 | 40.41158 | -3.30854 | 11432 ft | 290 kts | 13° |
| 2026-05-07 17:43 | 40.43136 | -3.30018 | 11818 ft | 310 kts | 29° |
| 2026-05-07 17:43 | 40.44817 | -3.28114 | 12238 ft | 329 kts | 49° |
| 2026-05-07 17:43 | 40.46368 | -3.25785 | 12621 ft | 349 kts | 49° |
| 2026-05-07 17:43 | 40.48058 | -3.23387 | 13001 ft | 367 kts | 46° |
| 2026-05-07 17:44 | 40.49879 | -3.20952 | 13532 ft | 379 kts | 45° |
| 2026-05-07 17:44 | 40.51772 | -3.18501 | 14186 ft | 385 kts | 44° |
| 2026-05-07 17:44 | 40.53706 | -3.16037 | 14890 ft | 389 kts | 44° |
| 2026-05-07 17:44 | 40.55671 | -3.13551 | 15572 ft | 394 kts | 44° |
| 2026-05-07 17:45 | 40.56988 | -3.11890 | 16031 ft | 397 kts | 44° |
| 2026-05-07 17:45 | 40.58995 | -3.09363 | 16715 ft | 401 kts | 43° |
| 2026-05-07 17:45 | 40.61023 | -3.06813 | 17422 ft | 406 kts | 43° |
| 2026-05-07 17:45 | 40.63076 | -3.04230 | 18140 ft | 410 kts | 43° |
| 2026-05-07 17:46 | 40.65152 | -3.01617 | 18724 ft | 416 kts | 43° |
| 2026-05-07 17:46 | 40.67251 | -2.98973 | 19386 ft | 419 kts | 43° |
| 2026-05-07 17:46 | 40.69365 | -2.96308 | 20068 ft | 423 kts | 43° |
| 2026-05-07 17:46 | 40.71499 | -2.93616 | 20749 ft | 427 kts | 43° |
| 2026-05-07 17:47 | 40.73656 | -2.90893 | 21404 ft | 431 kts | 43° |
| 2026-05-07 17:47 | 40.75829 | -2.88146 | 22039 ft | 435 kts | 43° |
| 2026-05-07 17:47 | 40.78019 | -2.85374 | 22686 ft | 439 kts | 43° |
| 2026-05-07 17:47 | 40.80212 | -2.82598 | 23304 ft | 443 kts | 43° |
| 2026-05-07 17:48 | 40.82447 | -2.79765 | 23770 ft | 447 kts | 43° |
| 2026-05-07 17:48 | 40.84693 | -2.76915 | 23916 ft | 448 kts | 43° |
| 2026-05-07 17:48 | 40.86942 | -2.74059 | 23935 ft | 449 kts | 43° |
| 2026-05-07 17:48 | 40.89194 | -2.71197 | 23934 ft | 449 kts | 43° |
| 2026-05-07 17:49 | 40.91448 | -2.68329 | 23933 ft | 449 kts | 43° |
| 2026-05-07 17:49 | 40.93699 | -2.65461 | 24059 ft | 451 kts | 44° |
| 2026-05-07 17:49 | 40.95894 | -2.62466 | 24552 ft | 454 kts | 49° |
| 2026-05-07 17:49 | 40.97707 | -2.59026 | 25134 ft | 457 kts | 61° |
| 2026-05-07 17:50 | 40.99002 | -2.55178 | 25664 ft | 460 kts | 70° |
| 2026-05-07 17:50 | 40.99977 | -2.51119 | 26157 ft | 464 kts | 75° |
| 2026-05-07 17:50 | 41.00777 | -2.46971 | 26636 ft | 469 kts | 77° |
| 2026-05-07 17:50 | 41.01513 | -2.42734 | 27152 ft | 473 kts | 77° |
| 2026-05-07 17:51 | 41.02243 | -2.38462 | 27629 ft | 477 kts | 77° |
| 2026-05-07 17:51 | 41.02998 | -2.34162 | 28104 ft | 482 kts | 76° |
| 2026-05-07 17:51 | 41.03783 | -2.29825 | 28572 ft | 486 kts | 76° |
| 2026-05-07 17:51 | 41.04591 | -2.25462 | 29078 ft | 489 kts | 77° |
| 2026-05-07 17:52 | 41.05413 | -2.21070 | 29559 ft | 492 kts | 77° |
| 2026-05-07 17:52 | 41.06245 | -2.16652 | 29984 ft | 497 kts | 77° |
| 2026-05-07 17:52 | 41.07085 | -2.12197 | 30323 ft | 501 kts | 76° |
| 2026-05-07 17:52 | 41.07932 | -2.07700 | 30643 ft | 505 kts | 76° |
| 2026-05-07 17:53 | 41.08787 | -2.03161 | 30953 ft | 509 kts | 76° |
| 2026-05-07 17:53 | 41.09640 | -1.98593 | 31264 ft | 513 kts | 76° |
| 2026-05-07 17:53 | 41.10496 | -1.93984 | 31548 ft | 517 kts | 76° |
| 2026-05-07 17:53 | 41.11355 | -1.89344 | 31844 ft | 520 kts | 76° |
| 2026-05-07 17:54 | 41.12204 | -1.84740 | 32217 ft | 521 kts | 76° |
| 2026-05-07 17:54 | 41.13065 | -1.80063 | 32538 ft | 523 kts | 76° |
| 2026-05-07 17:54 | 41.13928 | -1.75364 | 32928 ft | 524 kts | 76° |
| 2026-05-07 17:54 | 41.14800 | -1.70607 | 33372 ft | 524 kts | 76° |
| 2026-05-07 17:55 | 41.15661 | -1.65905 | 33770 ft | 524 kts | 75° |
| 2026-05-07 17:55 | 41.16508 | -1.61268 | 34101 ft | 524 kts | 75° |
| 2026-05-07 17:55 | 41.17364 | -1.56564 | 34394 ft | 525 kts | 75° |
| 2026-05-07 17:55 | 41.18219 | -1.51857 | 34711 ft | 525 kts | 76° |
| 2026-05-07 17:56 | 41.19071 | -1.47154 | 35187 ft | 520 kts | 76° |
| 2026-05-07 17:56 | 41.19918 | -1.42483 | 35495 ft | 521 kts | 76° |
| 2026-05-07 17:56 | 41.20764 | -1.37804 | 35707 ft | 523 kts | 76° |
| 2026-05-07 17:56 | 41.21610 | -1.33106 | 35952 ft | 524 kts | 76° |
| 2026-05-07 17:57 | 41.22455 | -1.28392 | 36210 ft | 525 kts | 76° |
| 2026-05-07 17:57 | 41.23014 | -1.25271 | 36361 ft | 525 kts | 76° |
| 2026-05-07 17:57 | 41.24144 | -1.18941 | 36687 ft | 526 kts | 77° |
| 2026-05-07 17:57 | 41.24986 | -1.14213 | 36932 ft | 527 kts | 77° |
| 2026-05-07 17:58 | 41.25828 | -1.09475 | 37184 ft | 527 kts | 77° |
| 2026-05-07 17:58 | 41.26669 | -1.04732 | 37400 ft | 528 kts | 77° |
| 2026-05-07 17:58 | 41.27509 | -0.99980 | 37624 ft | 529 kts | 77° |
| 2026-05-07 17:58 | 41.28349 | -0.95219 | 37835 ft | 529 kts | 77° |
| 2026-05-07 17:59 | 41.29188 | -0.90452 | 38047 ft | 530 kts | 77° |
| 2026-05-07 17:59 | 41.30026 | -0.85673 | 38256 ft | 531 kts | 77° |
| 2026-05-07 17:59 | 41.30863 | -0.80897 | 38464 ft | 531 kts | 77° |
| 2026-05-07 17:59 | 41.31701 | -0.76095 | 38627 ft | 532 kts | 77° |
| 2026-05-07 18:00 | 41.32535 | -0.71306 | 38851 ft | 531 kts | 77° |
| 2026-05-07 18:00 | 41.33366 | -0.66518 | 38937 ft | 531 kts | 77° |
| 2026-05-07 18:00 | 41.34955 | -0.56944 | 38952 ft | 529 kts | 82° |
| 2026-05-07 18:01 | 41.35363 | -0.47281 | 38939 ft | 526 kts | 91° |
| 2026-05-07 18:01 | 41.35334 | -0.37534 | 38944 ft | 526 kts | 92° |
| 2026-05-07 18:02 | 41.35169 | -0.22941 | 38944 ft | 526 kts | 92° |
| 2026-05-07 18:03 | 41.35066 | -0.13205 | 38942 ft | 526 kts | 92° |
| 2026-05-07 18:03 | 41.34967 | -0.03477 | 38934 ft | 526 kts | 92° |
| 2026-05-07 18:04 | 41.34861 | 0.06263 | 38947 ft | 527 kts | 92° |
| 2026-05-07 18:04 | 41.34748 | 0.16014 | 38936 ft | 527 kts | 92° |
| 2026-05-07 18:05 | 41.34627 | 0.25787 | 38948 ft | 529 kts | 92° |
| 2026-05-07 18:05 | 41.34497 | 0.35581 | 38949 ft | 529 kts | 92° |
| 2026-05-07 18:06 | 41.34354 | 0.45370 | 38946 ft | 529 kts | 93° |
| 2026-05-07 18:06 | 41.34205 | 0.55088 | 38949 ft | 529 kts | 93° |
| 2026-05-07 18:07 | 41.34044 | 0.64871 | 38952 ft | 529 kts | 93° |
| 2026-05-07 18:07 | 41.33880 | 0.74662 | 38949 ft | 529 kts | 93° |
| 2026-05-07 18:08 | 41.33708 | 0.84456 | 38956 ft | 530 kts | 93° |
| 2026-05-07 18:08 | 41.33526 | 0.94258 | 38963 ft | 530 kts | 93° |
| 2026-05-07 18:09 | 41.33335 | 1.04070 | 38961 ft | 530 kts | 93° |
| 2026-05-07 18:09 | 41.33134 | 1.13870 | 38965 ft | 530 kts | 94° |
| 2026-05-07 18:10 | 41.32925 | 1.23679 | 38967 ft | 530 kts | 94° |
| 2026-05-07 18:10 | 41.32712 | 1.33495 | 38969 ft | 530 kts | 94° |
| 2026-05-07 18:11 | 41.32492 | 1.43241 | 38969 ft | 530 kts | 94° |
| 2026-05-07 18:11 | 41.32260 | 1.53051 | 38962 ft | 530 kts | 94° |
| 2026-05-07 18:12 | 41.32020 | 1.62861 | 38972 ft | 530 kts | 94° |
| 2026-05-07 18:12 | 41.31774 | 1.72670 | 38975 ft | 531 kts | 94° |
| 2026-05-07 18:13 | 41.31517 | 1.82476 | 38976 ft | 531 kts | 94° |
| 2026-05-07 18:13 | 41.31247 | 1.92288 | 38958 ft | 531 kts | 95° |
| 2026-05-07 18:14 | 41.30970 | 2.02105 | 38966 ft | 531 kts | 95° |
| 2026-05-07 18:14 | 41.30426 | 2.11882 | 38969 ft | 527 kts | 104° |
| 2026-05-07 18:15 | 41.29010 | 2.21430 | 38966 ft | 526 kts | 105° |
| 2026-05-07 18:15 | 41.27437 | 2.30922 | 38958 ft | 526 kts | 106° |
| 2026-05-07 18:16 | 41.25834 | 2.40421 | 38966 ft | 527 kts | 106° |
| 2026-05-07 18:16 | 41.24236 | 2.49926 | 38966 ft | 527 kts | 106° |
| 2026-05-07 18:17 | 41.22648 | 2.59376 | 38966 ft | 527 kts | 106° |
| 2026-05-07 18:17 | 41.21046 | 2.68881 | 38946 ft | 527 kts | 106° |
| 2026-05-07 18:18 | 41.19441 | 2.78347 | 38961 ft | 525 kts | 106° |
| 2026-05-07 18:18 | 41.17831 | 2.87789 | 38960 ft | 524 kts | 107° |
| 2026-05-07 18:19 | 41.16213 | 2.97222 | 38961 ft | 524 kts | 107° |
| 2026-05-07 18:19 | 41.14587 | 3.06653 | 38957 ft | 524 kts | 107° |
| 2026-05-07 18:20 | 41.12959 | 3.16053 | 38961 ft | 522 kts | 107° |
| 2026-05-07 18:20 | 41.11327 | 3.25428 | 38956 ft | 521 kts | 107° |
| 2026-05-07 18:21 | 41.09687 | 3.34795 | 38951 ft | 521 kts | 107° |
| 2026-05-07 18:21 | 41.08039 | 3.44158 | 38944 ft | 521 kts | 107° |
| 2026-05-07 18:22 | 41.06384 | 3.53517 | 38957 ft | 521 kts | 107° |
| 2026-05-07 18:22 | 41.04725 | 3.62880 | 38952 ft | 521 kts | 107° |
| 2026-05-07 18:23 | 41.03054 | 3.72224 | 38962 ft | 521 kts | 108° |
| 2026-05-07 18:23 | 41.01386 | 3.81505 | 38942 ft | 521 kts | 108° |
| 2026-05-07 18:24 | 40.99705 | 3.90839 | 38956 ft | 520 kts | 108° |
| 2026-05-07 18:24 | 40.98012 | 4.00140 | 38958 ft | 520 kts | 108° |
| 2026-05-07 18:25 | 40.96314 | 4.09428 | 38958 ft | 519 kts | 108° |
| 2026-05-07 18:25 | 40.94609 | 4.18715 | 38956 ft | 519 kts | 108° |
| 2026-05-07 18:26 | 40.92896 | 4.28010 | 38952 ft | 520 kts | 109° |
| 2026-05-07 18:26 | 40.91176 | 4.37296 | 38955 ft | 520 kts | 109° |
| 2026-05-07 18:27 | 40.89449 | 4.46580 | 38955 ft | 520 kts | 109° |
| 2026-05-07 18:27 | 40.87722 | 4.55858 | 38954 ft | 520 kts | 109° |
| 2026-05-07 18:28 | 40.86014 | 4.65146 | 38949 ft | 522 kts | 106° |
| 2026-05-07 18:28 | 40.84945 | 4.74668 | 38953 ft | 525 kts | 102° |
| 2026-05-07 18:29 | 40.84052 | 4.84188 | 38957 ft | 525 kts | 101° |
| 2026-05-07 18:29 | 40.83177 | 4.93772 | 38951 ft | 525 kts | 102° |
| 2026-05-07 18:30 | 40.82287 | 5.03347 | 38954 ft | 525 kts | 102° |
| 2026-05-07 18:30 | 40.81379 | 5.12913 | 38957 ft | 525 kts | 102° |
| 2026-05-07 18:31 | 40.80461 | 5.22476 | 38951 ft | 525 kts | 102° |
| 2026-05-07 18:31 | 40.79693 | 5.30412 | 38952 ft | 525 kts | 102° |
| 2026-05-07 18:32 | 40.78761 | 5.39964 | 38951 ft | 526 kts | 102° |
| 2026-05-07 18:32 | 40.77818 | 5.49548 | 38944 ft | 527 kts | 102° |
| 2026-05-07 18:33 | 40.76865 | 5.59156 | 38949 ft | 528 kts | 103° |
| 2026-05-07 18:33 | 40.75902 | 5.68778 | 38946 ft | 529 kts | 103° |
| 2026-05-07 18:34 | 40.74931 | 5.78401 | 38950 ft | 531 kts | 103° |
| 2026-05-07 18:34 | 40.73947 | 5.88067 | 38950 ft | 532 kts | 103° |
| 2026-05-07 18:35 | 40.72963 | 5.97672 | 38947 ft | 532 kts | 103° |
| 2026-05-07 18:35 | 40.71965 | 6.07334 | 38947 ft | 532 kts | 103° |
| 2026-05-07 18:36 | 40.70950 | 6.17007 | 38946 ft | 534 kts | 103° |
| 2026-05-07 18:36 | 40.69925 | 6.26706 | 38947 ft | 534 kts | 103° |
| 2026-05-07 18:37 | 40.68895 | 6.36405 | 38946 ft | 534 kts | 103° |
| 2026-05-07 18:37 | 40.67857 | 6.46095 | 38946 ft | 534 kts | 104° |
| 2026-05-07 18:38 | 40.66806 | 6.55810 | 38945 ft | 538 kts | 103° |
| 2026-05-07 18:38 | 40.65742 | 6.65576 | 38944 ft | 539 kts | 103° |
| 2026-05-07 18:39 | 40.64672 | 6.75337 | 38940 ft | 539 kts | 104° |
| 2026-05-07 18:39 | 40.63592 | 6.85106 | 38924 ft | 539 kts | 104° |
| 2026-05-07 18:40 | 40.62500 | 6.94881 | 38936 ft | 541 kts | 104° |
| 2026-05-07 18:40 | 40.61404 | 7.04635 | 38942 ft | 542 kts | 104° |
| 2026-05-07 18:41 | 40.60293 | 7.14446 | 38945 ft | 542 kts | 104° |
| 2026-05-07 18:41 | 40.59174 | 7.24247 | 38939 ft | 542 kts | 104° |
| 2026-05-07 18:42 | 40.58047 | 7.34040 | 38941 ft | 543 kts | 104° |
| 2026-05-07 18:42 | 40.56904 | 7.43956 | 38938 ft | 552 kts | 103° |
| 2026-05-07 18:42 | 40.56672 | 7.49036 | 38938 ft | 561 kts | 92° |
| 2026-05-07 18:43 | 40.56906 | 7.54186 | 38939 ft | 565 kts | 89° |
| 2026-05-07 18:43 | 40.57712 | 7.64498 | 38933 ft | 568 kts | 86° |
| 2026-05-07 18:44 | 40.58650 | 7.74832 | 38940 ft | 569 kts | 86° |
| 2026-05-07 18:44 | 40.59568 | 7.85182 | 38932 ft | 569 kts | 87° |
| 2026-05-07 18:45 | 40.60448 | 7.95532 | 38942 ft | 569 kts | 87° |
| 2026-05-07 18:45 | 40.61307 | 8.05851 | 38937 ft | 570 kts | 87° |
| 2026-05-07 18:46 | 40.62161 | 8.16233 | 38950 ft | 571 kts | 87° |
| 2026-05-07 18:46 | 40.62773 | 8.26617 | 38933 ft | 566 kts | 92° |
| 2026-05-07 18:47 | 40.62853 | 8.36964 | 38937 ft | 565 kts | 94° |
| 2026-05-07 18:47 | 40.62833 | 8.47320 | 38937 ft | 566 kts | 94° |
| 2026-05-07 18:48 | 40.62795 | 8.57620 | 38940 ft | 566 kts | 94° |
| 2026-05-07 18:48 | 40.62760 | 8.67986 | 38943 ft | 566 kts | 94° |
| 2026-05-07 18:49 | 40.62720 | 8.78351 | 38938 ft | 566 kts | 94° |
| 2026-05-07 18:49 | 40.62673 | 8.88724 | 38950 ft | 567 kts | 94° |
| 2026-05-07 18:50 | 40.62616 | 8.99105 | 38950 ft | 567 kts | 94° |
| 2026-05-07 18:50 | 40.62550 | 9.09481 | 38938 ft | 567 kts | 94° |
| 2026-05-07 18:51 | 40.62475 | 9.19846 | 38960 ft | 566 kts | 94° |
| 2026-05-07 18:51 | 40.62390 | 9.30216 | 38968 ft | 566 kts | 94° |
| 2026-05-07 18:52 | 40.62297 | 9.40570 | 38960 ft | 566 kts | 94° |
| 2026-05-07 18:52 | 40.62193 | 9.50929 | 38961 ft | 566 kts | 94° |
| 2026-05-07 18:53 | 40.62080 | 9.61287 | 38962 ft | 565 kts | 94° |
| 2026-05-07 18:53 | 40.61959 | 9.71563 | 38960 ft | 565 kts | 94° |
| 2026-05-07 18:54 | 40.61828 | 9.81903 | 38961 ft | 565 kts | 94° |
| 2026-05-07 18:54 | 40.61688 | 9.92235 | 38961 ft | 564 kts | 94° |
| 2026-05-07 18:55 | 40.61539 | 10.02553 | 38962 ft | 564 kts | 94° |
| 2026-05-07 18:55 | 40.61381 | 10.12876 | 38960 ft | 564 kts | 94° |
| 2026-05-07 18:56 | 40.61214 | 10.23190 | 38951 ft | 563 kts | 95° |
| 2026-05-07 18:56 | 40.61038 | 10.33496 | 38951 ft | 563 kts | 95° |
| 2026-05-07 18:57 | 40.60852 | 10.43786 | 38957 ft | 562 kts | 95° |
| 2026-05-07 18:57 | 40.60659 | 10.54009 | 38957 ft | 562 kts | 95° |
| 2026-05-07 18:58 | 40.60456 | 10.64288 | 38957 ft | 562 kts | 95° |
| 2026-05-07 18:58 | 40.60244 | 10.74552 | 38959 ft | 561 kts | 95° |
| 2026-05-07 18:59 | 40.60023 | 10.84818 | 38957 ft | 561 kts | 95° |
| 2026-05-07 18:59 | 40.59792 | 10.95078 | 38956 ft | 561 kts | 95° |
| 2026-05-07 19:00 | 40.59553 | 11.05332 | 38951 ft | 561 kts | 95° |
| 2026-05-07 19:00 | 40.59304 | 11.15594 | 38964 ft | 561 kts | 95° |
| 2026-05-07 19:01 | 40.59047 | 11.25849 | 38946 ft | 561 kts | 95° |
| 2026-05-07 19:01 | 40.58781 | 11.36120 | 38950 ft | 562 kts | 96° |
| 2026-05-07 19:02 | 40.58504 | 11.46408 | 38951 ft | 563 kts | 96° |
| 2026-05-07 19:02 | 40.58219 | 11.56690 | 38951 ft | 563 kts | 96° |
| 2026-05-07 19:03 | 40.57923 | 11.67008 | 38949 ft | 563 kts | 96° |
| 2026-05-07 19:03 | 40.57617 | 11.77332 | 38947 ft | 568 kts | 96° |
| 2026-05-07 19:04 | 40.57300 | 11.87725 | 38947 ft | 570 kts | 96° |
| 2026-05-07 19:04 | 40.56975 | 11.98146 | 38946 ft | 570 kts | 96° |
| 2026-05-07 19:05 | 40.56642 | 12.08494 | 38938 ft | 570 kts | 97° |
| 2026-05-07 19:05 | 40.56296 | 12.18926 | 38944 ft | 571 kts | 97° |
| 2026-05-07 19:06 | 40.55941 | 12.29366 | 38942 ft | 571 kts | 97° |
| 2026-05-07 19:06 | 40.55391 | 12.45034 | 38937 ft | 573 kts | 97° |
| 2026-05-07 19:07 | 40.55006 | 12.55550 | 38936 ft | 577 kts | 97° |
| 2026-05-07 19:07 | 40.54617 | 12.66030 | 38932 ft | 577 kts | 97° |
| 2026-05-07 19:08 | 40.54217 | 12.76566 | 38937 ft | 577 kts | 98° |
| 2026-05-07 19:08 | 40.53803 | 12.87149 | 38929 ft | 582 kts | 98° |
| 2026-05-07 19:09 | 40.53424 | 12.97831 | 38923 ft | 589 kts | 94° |
| 2026-05-07 19:09 | 40.53672 | 13.08608 | 38927 ft | 591 kts | 92° |
| 2026-05-07 19:10 | 40.54051 | 13.19429 | 38925 ft | 594 kts | 92° |
| 2026-05-07 19:10 | 40.54448 | 13.30330 | 38920 ft | 599 kts | 92° |
| 2026-05-07 19:11 | 40.54828 | 13.41282 | 38919 ft | 599 kts | 92° |
| 2026-05-07 19:11 | 40.55187 | 13.52174 | 38925 ft | 599 kts | 92° |
| 2026-05-07 19:12 | 40.55533 | 13.63149 | 38915 ft | 601 kts | 92° |
| 2026-05-07 19:12 | 40.55870 | 13.74137 | 38913 ft | 601 kts | 92° |
| 2026-05-07 19:13 | 40.56197 | 13.85121 | 38911 ft | 601 kts | 92° |
| 2026-05-07 19:13 | 40.56514 | 13.96135 | 38898 ft | 603 kts | 92° |
| 2026-05-07 19:14 | 40.56821 | 14.07152 | 38903 ft | 604 kts | 92° |
| 2026-05-07 19:14 | 40.57118 | 14.18187 | 38902 ft | 604 kts | 92° |
| 2026-05-07 19:15 | 40.57405 | 14.29219 | 38899 ft | 604 kts | 92° |
| 2026-05-07 19:15 | 40.57680 | 14.40258 | 38899 ft | 604 kts | 92° |
| 2026-05-07 19:16 | 40.57946 | 14.51303 | 38897 ft | 604 kts | 92° |
| 2026-05-07 19:16 | 40.58202 | 14.62337 | 38904 ft | 604 kts | 92° |
| 2026-05-07 19:17 | 40.58447 | 14.73371 | 38911 ft | 603 kts | 92° |
| 2026-05-07 19:17 | 40.58681 | 14.84414 | 38911 ft | 603 kts | 92° |
| 2026-05-07 19:18 | 40.58902 | 14.95372 | 38911 ft | 604 kts | 92° |
| 2026-05-07 19:18 | 40.59115 | 15.06423 | 38911 ft | 605 kts | 92° |
| 2026-05-07 19:19 | 40.59286 | 15.15688 | 38920 ft | 605 kts | 92° |
| 2026-05-07 19:19 | 40.59511 | 15.28539 | 38937 ft | 605 kts | 92° |
| 2026-05-07 19:20 | 40.59691 | 15.39589 | 38951 ft | 604 kts | 92° |
| 2026-05-07 19:20 | 40.59836 | 15.48847 | 38952 ft | 603 kts | 92° |
| 2026-05-07 19:21 | 40.59994 | 15.59820 | 38963 ft | 603 kts | 92° |
| 2026-05-07 19:21 | 40.60147 | 15.70860 | 38969 ft | 603 kts | 91° |
| 2026-05-07 19:22 | 40.60290 | 15.81890 | 38991 ft | 603 kts | 92° |
| 2026-05-07 19:22 | 40.60418 | 15.92911 | 38997 ft | 602 kts | 92° |
| 2026-05-07 19:23 | 40.60538 | 16.03937 | 38994 ft | 602 kts | 91° |
| 2026-05-07 19:23 | 40.60648 | 16.14941 | 38999 ft | 602 kts | 91° |
| 2026-05-07 19:24 | 40.60751 | 16.25960 | 39009 ft | 602 kts | 91° |
| 2026-05-07 19:24 | 40.60840 | 16.36971 | 39014 ft | 601 kts | 91° |
| 2026-05-07 19:25 | 40.60915 | 16.47980 | 39035 ft | 601 kts | 91° |
| 2026-05-07 19:25 | 40.60982 | 16.58989 | 39028 ft | 601 kts | 91° |
| 2026-05-07 19:26 | 40.61039 | 16.69983 | 39024 ft | 601 kts | 91° |
| 2026-05-07 19:26 | 40.61085 | 16.80992 | 39028 ft | 601 kts | 91° |
| 2026-05-07 19:27 | 40.61122 | 16.91987 | 39029 ft | 601 kts | 91° |
| 2026-05-07 19:27 | 40.61148 | 17.02995 | 39029 ft | 601 kts | 91° |
| 2026-05-07 19:28 | 40.61162 | 17.13934 | 39021 ft | 601 kts | 91° |
| 2026-05-07 19:28 | 40.61167 | 17.24942 | 39021 ft | 601 kts | 91° |
| 2026-05-07 19:29 | 40.61162 | 17.35936 | 39020 ft | 601 kts | 91° |
| 2026-05-07 19:29 | 40.61146 | 17.46936 | 39020 ft | 601 kts | 91° |
| 2026-05-07 19:30 | 40.61119 | 17.57918 | 39023 ft | 600 kts | 91° |
| 2026-05-07 19:30 | 40.61082 | 17.68917 | 39024 ft | 600 kts | 91° |
| 2026-05-07 19:31 | 40.61036 | 17.79913 | 39023 ft | 602 kts | 91° |
| 2026-05-07 19:31 | 40.60978 | 17.90933 | 39048 ft | 602 kts | 91° |
| 2026-05-07 19:32 | 40.60910 | 18.01877 | 39047 ft | 602 kts | 91° |
| 2026-05-07 19:32 | 40.60831 | 18.12890 | 39044 ft | 602 kts | 91° |
| 2026-05-07 19:33 | 40.60742 | 18.23908 | 39040 ft | 602 kts | 91° |
| 2026-05-07 19:33 | 40.60643 | 18.34920 | 39036 ft | 602 kts | 91° |
| 2026-05-07 19:34 | 40.60532 | 18.45930 | 39025 ft | 601 kts | 91° |
| 2026-05-07 19:34 | 40.60411 | 18.56927 | 39040 ft | 600 kts | 91° |
| 2026-05-07 19:35 | 40.60281 | 18.67899 | 39040 ft | 600 kts | 91° |
| 2026-05-07 19:35 | 40.60141 | 18.78874 | 39034 ft | 600 kts | 91° |
| 2026-05-07 19:36 | 40.59989 | 18.89829 | 39045 ft | 598 kts | 91° |
| 2026-05-07 19:36 | 40.59829 | 19.00767 | 39053 ft | 598 kts | 91° |
| 2026-05-07 19:37 | 40.59406 | 19.11705 | 39055 ft | 598 kts | 95° |
| 2026-05-07 19:37 | 40.58729 | 19.22621 | 39053 ft | 598 kts | 95° |
| 2026-05-07 19:38 | 40.58067 | 19.33520 | 39053 ft | 598 kts | 95° |
| 2026-05-07 19:38 | 40.57454 | 19.44359 | 39059 ft | 598 kts | 94° |
| 2026-05-07 19:39 | 40.56851 | 19.55260 | 39058 ft | 597 kts | 94° |
| 2026-05-07 19:39 | 40.56238 | 19.66146 | 39065 ft | 597 kts | 94° |
| 2026-05-07 19:40 | 40.55611 | 19.77027 | 39067 ft | 597 kts | 94° |
| 2026-05-07 19:40 | 40.54973 | 19.87914 | 39066 ft | 597 kts | 94° |
| 2026-05-07 19:41 | 40.54321 | 19.98796 | 39079 ft | 598 kts | 94° |
| 2026-05-07 19:41 | 40.53659 | 20.09689 | 39088 ft | 597 kts | 94° |
| 2026-05-07 19:42 | 40.52989 | 20.20560 | 39094 ft | 597 kts | 94° |
| 2026-05-07 19:42 | 40.52310 | 20.31448 | 39087 ft | 597 kts | 94° |
| 2026-05-07 19:43 | 40.51629 | 20.42341 | 39101 ft | 597 kts | 94° |
| 2026-05-07 19:43 | 40.50923 | 20.53215 | 39117 ft | 597 kts | 94° |
| 2026-05-07 19:44 | 40.50208 | 20.64082 | 39126 ft | 597 kts | 94° |
| 2026-05-07 19:44 | 40.49491 | 20.74871 | 39128 ft | 597 kts | 94° |
| 2026-05-07 19:45 | 40.48758 | 20.85739 | 39132 ft | 597 kts | 93° |
| 2026-05-07 19:45 | 40.48019 | 20.96592 | 39140 ft | 596 kts | 94° |
| 2026-05-07 19:46 | 40.47107 | 21.07418 | 39145 ft | 597 kts | 96° |
| 2026-05-07 19:46 | 40.46036 | 21.18222 | 39135 ft | 596 kts | 96° |
| 2026-05-07 19:47 | 40.45219 | 21.29021 | 39141 ft | 593 kts | 88° |
| 2026-05-07 19:47 | 40.45180 | 21.39833 | 39140 ft | 592 kts | 86° |
| 2026-05-07 19:48 | 40.45288 | 21.50639 | 39137 ft | 591 kts | 86° |
| 2026-05-07 19:48 | 40.45408 | 21.61439 | 39143 ft | 591 kts | 86° |
| 2026-05-07 19:49 | 40.45499 | 21.72233 | 39152 ft | 591 kts | 86° |
| 2026-05-07 19:49 | 40.45566 | 21.83038 | 39147 ft | 591 kts | 86° |
| 2026-05-07 19:50 | 40.45619 | 21.93802 | 39146 ft | 589 kts | 86° |
| 2026-05-07 19:50 | 40.45664 | 22.04496 | 39164 ft | 589 kts | 86° |
| 2026-05-07 19:51 | 40.45705 | 22.15256 | 39132 ft | 590 kts | 86° |
| 2026-05-07 19:51 | 40.45733 | 22.26024 | 39133 ft | 590 kts | 86° |
| 2026-05-07 19:52 | 40.45750 | 22.36779 | 39115 ft | 589 kts | 86° |
| 2026-05-07 19:52 | 40.45761 | 22.47546 | 39108 ft | 589 kts | 85° |
| 2026-05-07 19:53 | 40.45766 | 22.58284 | 39108 ft | 588 kts | 86° |
| 2026-05-07 19:53 | 40.45758 | 22.69020 | 39102 ft | 588 kts | 86° |
| 2026-05-07 19:54 | 40.45741 | 22.79753 | 39099 ft | 588 kts | 85° |
| 2026-05-07 19:54 | 40.45715 | 22.90477 | 39100 ft | 587 kts | 85° |
| 2026-05-07 19:55 | 40.46098 | 23.01112 | 39110 ft | 578 kts | 75° |
| 2026-05-07 19:55 | 40.47451 | 23.11484 | 39106 ft | 575 kts | 72° |
| 2026-05-07 19:56 | 40.48954 | 23.21696 | 39102 ft | 571 kts | 72° |
| 2026-05-07 19:56 | 40.50484 | 23.31991 | 39103 ft | 570 kts | 72° |
| 2026-05-07 19:57 | 40.51967 | 23.42153 | 39104 ft | 570 kts | 72° |
| 2026-05-07 19:57 | 40.53435 | 23.52386 | 39103 ft | 569 kts | 72° |
| 2026-05-07 19:58 | 40.54889 | 23.62623 | 39107 ft | 569 kts | 72° |
| 2026-05-07 19:58 | 40.56337 | 23.72874 | 39101 ft | 571 kts | 73° |
| 2026-05-07 19:59 | 40.57776 | 23.83135 | 39101 ft | 570 kts | 72° |
| 2026-05-07 19:59 | 40.59208 | 23.93402 | 39102 ft | 570 kts | 73° |
| 2026-05-07 20:00 | 40.61226 | 24.03380 | 39102 ft | 562 kts | 65° |
| 2026-05-07 20:00 | 40.63496 | 24.13188 | 39110 ft | 555 kts | 64° |
| 2026-05-07 20:01 | 40.65754 | 24.22773 | 39103 ft | 550 kts | 64° |
| 2026-05-07 20:01 | 40.68014 | 24.32389 | 39106 ft | 549 kts | 64° |
| 2026-05-07 20:02 | 40.70256 | 24.42017 | 39098 ft | 549 kts | 64° |
| 2026-05-07 20:02 | 40.72481 | 24.51647 | 39096 ft | 549 kts | 64° |
| 2026-05-07 20:03 | 40.74698 | 24.61277 | 39099 ft | 550 kts | 64° |
| 2026-05-07 20:03 | 40.76916 | 24.70952 | 39098 ft | 551 kts | 64° |
| 2026-05-07 20:04 | 40.79127 | 24.80637 | 39099 ft | 551 kts | 64° |
| 2026-05-07 20:04 | 40.81328 | 24.90323 | 39098 ft | 551 kts | 65° |
| 2026-05-07 20:05 | 40.83509 | 24.99955 | 39111 ft | 551 kts | 65° |
| 2026-05-07 20:05 | 40.85696 | 25.09656 | 39099 ft | 551 kts | 65° |
| 2026-05-07 20:06 | 40.87875 | 25.19365 | 39100 ft | 550 kts | 65° |
| 2026-05-07 20:06 | 40.90043 | 25.29068 | 39100 ft | 551 kts | 65° |
| 2026-05-07 20:07 | 40.92206 | 25.38778 | 39100 ft | 549 kts | 65° |
| 2026-05-07 20:07 | 40.94348 | 25.48440 | 39101 ft | 546 kts | 66° |
| 2026-05-07 20:08 | 40.96477 | 25.58071 | 39000 ft | 545 kts | 66° |
| 2026-05-07 20:08 | 40.97538 | 25.62885 | 38505 ft | 544 kts | 66° |
| 2026-05-07 20:08 | 40.98593 | 25.67675 | 37851 ft | 541 kts | 68° |
| 2026-05-07 20:09 | 40.99286 | 25.70836 | 37441 ft | 539 kts | 68° |
| 2026-05-07 20:09 | 41.00328 | 25.75585 | 36721 ft | 537 kts | 69° |
| 2026-05-07 20:09 | 41.01366 | 25.80330 | 36019 ft | 535 kts | 69° |
| 2026-05-07 20:10 | 41.03421 | 25.89748 | 34662 ft | 529 kts | 71° |
| 2026-05-07 20:10 | 41.04434 | 25.94415 | 33959 ft | 526 kts | 72° |
| 2026-05-07 20:10 | 41.05445 | 25.99078 | 33092 ft | 525 kts | 73° |
| 2026-05-07 20:10 | 41.06447 | 26.03717 | 32221 ft | 523 kts | 73° |
| 2026-05-07 20:11 | 41.07446 | 26.08352 | 31321 ft | 523 kts | 73° |
| 2026-05-07 20:11 | 41.08443 | 26.12985 | 30430 ft | 522 kts | 74° |
| 2026-05-07 20:11 | 41.09436 | 26.17615 | 29436 ft | 521 kts | 74° |
| 2026-05-07 20:11 | 41.10426 | 26.22238 | 28557 ft | 518 kts | 74° |
| 2026-05-07 20:12 | 41.11253 | 26.26802 | 27878 ft | 512 kts | 81° |
| 2026-05-07 20:12 | 41.11502 | 26.31468 | 27256 ft | 504 kts | 92° |
| 2026-05-07 20:12 | 41.11027 | 26.36027 | 26829 ft | 493 kts | 105° |
| 2026-05-07 20:12 | 41.09948 | 26.40256 | 26712 ft | 476 kts | 112° |
| 2026-05-07 20:13 | 41.08734 | 26.44256 | 26562 ft | 461 kts | 113° |
| 2026-05-07 20:13 | 41.07526 | 26.48128 | 26380 ft | 448 kts | 113° |
| 2026-05-07 20:13 | 41.06346 | 26.51889 | 26169 ft | 436 kts | 114° |
| 2026-05-07 20:13 | 41.05193 | 26.55558 | 25810 ft | 429 kts | 114° |
| 2026-05-07 20:14 | 41.04095 | 26.59217 | 25306 ft | 427 kts | 109° |
| 2026-05-07 20:14 | 41.03531 | 26.63054 | 24882 ft | 423 kts | 92° |
| 2026-05-07 20:14 | 41.03514 | 26.66946 | 24462 ft | 423 kts | 88° |
| 2026-05-07 20:14 | 41.03601 | 26.70837 | 24052 ft | 423 kts | 88° |
| 2026-05-07 20:15 | 41.03692 | 26.74721 | 23645 ft | 421 kts | 88° |
| 2026-05-07 20:15 | 41.03775 | 26.78540 | 23182 ft | 418 kts | 88° |
| 2026-05-07 20:15 | 41.03852 | 26.82382 | 22757 ft | 415 kts | 88° |
| 2026-05-07 20:15 | 41.03935 | 26.86198 | 22357 ft | 412 kts | 87° |
| 2026-05-07 20:16 | 41.04389 | 26.89913 | 21966 ft | 407 kts | 71° |
| 2026-05-07 20:16 | 41.05576 | 26.93277 | 21566 ft | 401 kts | 58° |
| 2026-05-07 20:16 | 41.07010 | 26.96429 | 21177 ft | 398 kts | 57° |
| 2026-05-07 20:16 | 41.08464 | 26.99544 | 20788 ft | 396 kts | 57° |
| 2026-05-07 20:17 | 41.09904 | 27.02641 | 20405 ft | 394 kts | 57° |
| 2026-05-07 20:17 | 41.11328 | 27.05724 | 20084 ft | 389 kts | 57° |
| 2026-05-07 20:17 | 41.12714 | 27.08741 | 19856 ft | 378 kts | 58° |
| 2026-05-07 20:17 | 41.14059 | 27.11678 | 19667 ft | 367 kts | 57° |
| 2026-05-07 20:18 | 41.15366 | 27.14532 | 19433 ft | 358 kts | 58° |
| 2026-05-07 20:18 | 41.16633 | 27.17304 | 19083 ft | 354 kts | 58° |
| 2026-05-07 20:18 | 41.17724 | 27.20248 | 18739 ft | 349 kts | 72° |
| 2026-05-07 20:18 | 41.17955 | 27.23411 | 18341 ft | 346 kts | 98° |
| 2026-05-07 20:19 | 41.17192 | 27.26371 | 17638 ft | 337 kts | 124° |
| 2026-05-07 20:19 | 41.15606 | 27.28521 | 17198 ft | 330 kts | 148° |
| 2026-05-07 20:19 | 41.13521 | 27.29710 | 16880 ft | 325 kts | 168° |
| 2026-05-07 20:19 | 41.11364 | 27.30604 | 16558 ft | 326 kts | 157° |
| 2026-05-07 20:20 | 41.09359 | 27.31997 | 16245 ft | 325 kts | 151° |
| 2026-05-07 20:20 | 41.07419 | 27.33518 | 15922 ft | 324 kts | 150° |
| 2026-05-07 20:20 | 41.05495 | 27.35053 | 15598 ft | 323 kts | 150° |
| 2026-05-07 20:20 | 41.03565 | 27.36587 | 15324 ft | 323 kts | 150° |
| 2026-05-07 20:21 | 41.01650 | 27.38107 | 14973 ft | 319 kts | 150° |
| 2026-05-07 20:21 | 40.99754 | 27.39611 | 14656 ft | 317 kts | 150° |
| 2026-05-07 20:21 | 40.97878 | 27.41133 | 14346 ft | 316 kts | 147° |
| 2026-05-07 20:21 | 40.96279 | 27.43122 | 14036 ft | 317 kts | 126° |
| 2026-05-07 20:22 | 40.95284 | 27.45700 | 13873 ft | 316 kts | 113° |
| 2026-05-07 20:22 | 40.94478 | 27.48421 | 13699 ft | 317 kts | 111° |
| 2026-05-07 20:22 | 40.93688 | 27.51145 | 13507 ft | 317 kts | 111° |
| 2026-05-07 20:22 | 40.92893 | 27.53865 | 13331 ft | 317 kts | 112° |
| 2026-05-07 20:23 | 40.92095 | 27.56577 | 13156 ft | 316 kts | 112° |
| 2026-05-07 20:23 | 40.91298 | 27.59273 | 12969 ft | 315 kts | 112° |
| 2026-05-07 20:23 | 40.90496 | 27.61961 | 12793 ft | 313 kts | 113° |
| 2026-05-07 20:23 | 40.89611 | 27.64587 | 12620 ft | 312 kts | 116° |
| 2026-05-07 20:24 | 40.88689 | 27.67178 | 12451 ft | 311 kts | 116° |
| 2026-05-07 20:24 | 40.87774 | 27.69761 | 12265 ft | 310 kts | 116° |
| 2026-05-07 20:24 | 40.86867 | 27.72343 | 12094 ft | 309 kts | 116° |
| 2026-05-07 20:24 | 40.85967 | 27.74917 | 11966 ft | 308 kts | 116° |
| 2026-05-07 20:25 | 40.85072 | 27.77484 | 11870 ft | 308 kts | 116° |
| 2026-05-07 20:25 | 40.84180 | 27.80045 | 11749 ft | 307 kts | 116° |
| 2026-05-07 20:25 | 40.83289 | 27.82604 | 11575 ft | 306 kts | 116° |
| 2026-05-07 20:25 | 40.82418 | 27.85162 | 11409 ft | 305 kts | 113° |
| 2026-05-07 20:26 | 40.81966 | 27.87885 | 11233 ft | 305 kts | 91° |
| 2026-05-07 20:26 | 40.82062 | 27.90677 | 11046 ft | 304 kts | 85° |
| 2026-05-07 20:26 | 40.82269 | 27.93457 | 10845 ft | 304 kts | 84° |
| 2026-05-07 20:26 | 40.82478 | 27.96229 | 10663 ft | 303 kts | 85° |
| 2026-05-07 20:27 | 40.82678 | 27.98987 | 10478 ft | 302 kts | 85° |
| 2026-05-07 20:27 | 40.82873 | 28.01744 | 10290 ft | 301 kts | 85° |
| 2026-05-07 20:27 | 40.83064 | 28.04492 | 10101 ft | 300 kts | 85° |
| 2026-05-07 20:27 | 40.83251 | 28.07228 | 9902 ft | 299 kts | 85° |
| 2026-05-07 20:28 | 40.83437 | 28.09964 | 9717 ft | 298 kts | 85° |
| 2026-05-07 20:28 | 40.83621 | 28.12687 | 9534 ft | 298 kts | 85° |
| 2026-05-07 20:28 | 40.83805 | 28.15407 | 9355 ft | 297 kts | 85° |
| 2026-05-07 20:28 | 40.83989 | 28.18115 | 9172 ft | 296 kts | 85° |
| 2026-05-07 20:29 | 40.84169 | 28.20825 | 8998 ft | 295 kts | 85° |
| 2026-05-07 20:29 | 40.84345 | 28.23492 | 8806 ft | 295 kts | 85° |
| 2026-05-07 20:29 | 40.84525 | 28.26223 | 8628 ft | 294 kts | 85° |
| 2026-05-07 20:29 | 40.84702 | 28.28910 | 8446 ft | 294 kts | 85° |
| 2026-05-07 20:30 | 40.84876 | 28.31565 | 8273 ft | 293 kts | 85° |
| 2026-05-07 20:30 | 40.85051 | 28.34240 | 8088 ft | 293 kts | 85° |
| 2026-05-07 20:30 | 40.85226 | 28.36919 | 7915 ft | 292 kts | 85° |
| 2026-05-07 20:30 | 40.85397 | 28.39559 | 7750 ft | 283 kts | 85° |
| 2026-05-07 20:31 | 40.85561 | 28.42099 | 7596 ft | 272 kts | 85° |
| 2026-05-07 20:31 | 40.85745 | 28.44537 | 7415 ft | 262 kts | 81° |
| 2026-05-07 20:31 | 40.86401 | 28.46715 | 7322 ft | 253 kts | 51° |
| 2026-05-07 20:31 | 40.87581 | 28.48439 | 7432 ft | 252 kts | 44° |
| 2026-05-07 20:32 | 40.88940 | 28.49887 | 7231 ft | 251 kts | 32° |
| 2026-05-07 20:32 | 40.90395 | 28.51180 | 6985 ft | 252 kts | 31° |
| 2026-05-07 20:32 | 40.91852 | 28.52461 | 6770 ft | 250 kts | 31° |
| 2026-05-07 20:32 | 40.93265 | 28.53724 | 6644 ft | 241 kts | 32° |
| 2026-05-07 20:33 | 40.94636 | 28.54987 | 6522 ft | 240 kts | 32° |
| 2026-05-07 20:33 | 40.95749 | 28.56626 | 6397 ft | 243 kts | 61° |
| 2026-05-07 20:33 | 40.96434 | 28.58666 | 6247 ft | 245 kts | 78° |
| 2026-05-07 20:33 | 40.96441 | 28.60900 | 6111 ft | 244 kts | 97° |
| 2026-05-07 20:34 | 40.96273 | 28.63134 | 5863 ft | 243 kts | 95° |
| 2026-05-07 20:34 | 40.96172 | 28.65362 | 5642 ft | 241 kts | 92° |
| 2026-05-07 20:34 | 40.96399 | 28.67541 | 5512 ft | 239 kts | 65° |
| 2026-05-07 20:34 | 40.97417 | 28.69193 | 5380 ft | 231 kts | 32° |
| 2026-05-07 20:35 | 40.98801 | 28.70240 | 5275 ft | 229 kts | 20° |
| 2026-05-07 20:35 | 41.00298 | 28.70914 | 5148 ft | 226 kts | 9° |
| 2026-05-07 20:35 | 41.01825 | 28.71229 | 5026 ft | 224 kts | 0° |
| 2026-05-07 20:35 | 41.03368 | 28.71284 | 4879 ft | 220 kts | 355° |
| 2026-05-07 20:36 | 41.04888 | 28.71241 | 4593 ft | 217 kts | 354° |
| 2026-05-07 20:36 | 41.06387 | 28.71199 | 4279 ft | 214 kts | 355° |
| 2026-05-07 20:36 | 41.07848 | 28.71171 | 3956 ft | 205 kts | 354° |
| 2026-05-07 20:36 | 41.09231 | 28.71140 | 3674 ft | 192 kts | 353° |
| 2026-05-07 20:37 | 41.10526 | 28.71109 | 3416 ft | 179 kts | 353° |
| 2026-05-07 20:37 | 41.11719 | 28.71081 | 3189 ft | 164 kts | 353° |
| 2026-05-07 20:37 | 41.12824 | 28.71055 | 2979 ft | 154 kts | 352° |
| 2026-05-07 20:37 | 41.13857 | 28.71032 | 2770 ft | 143 kts | 352° |
| 2026-05-07 20:38 | 41.14825 | 28.71010 | 2597 ft | 137 kts | 351° |
| 2026-05-07 20:38 | 41.15780 | 28.70985 | 2414 ft | 137 kts | 352° |
| 2026-05-07 20:38 | 41.16734 | 28.70963 | 2230 ft | 137 kts | 352° |
| 2026-05-07 20:38 | 41.17683 | 28.70942 | 2051 ft | 136 kts | 352° |
| 2026-05-07 20:39 | 41.18632 | 28.70920 | 1870 ft | 136 kts | 352° |
| 2026-05-07 20:39 | 41.19580 | 28.70897 | 1693 ft | 136 kts | 353° |
| 2026-05-07 20:39 | 41.20528 | 28.70876 | 1507 ft | 137 kts | 354° |
| 2026-05-07 20:39 | 41.21480 | 28.70855 | 1338 ft | 137 kts | 354° |
| 2026-05-07 20:40 | 41.22431 | 28.70822 | 1122 ft | 136 kts | 355° |
| 2026-05-07 20:40 | 41.23373 | 28.70782 | 932 ft | 136 kts | 356° |
| 2026-05-07 20:40 | 41.24313 | 28.70735 | 795 ft | 135 kts | 356° |
| 2026-05-07 20:40 | 41.25265 | 28.70712 | 678 ft | 137 kts | 359° |
| 2026-05-07 20:41 | 41.26219 | 28.70708 | 541 ft | 137 kts | 359° |
| 2026-05-07 20:41 | 41.27176 | 28.70708 | 364 ft | 136 kts | 359° |
| 2026-05-07 20:41 | 41.28011 | 28.70697 | 337 ft | 91 kts | 0° |
| 2026-05-07 20:41 | 41.28435 | 28.70696 | 336 ft | 43 kts | 2° |
| 2026-05-07 20:42 | 41.28648 | 28.70802 | 337 ft | 25 kts | 28° |
| 2026-05-07 20:42 | 41.28771 | 28.70891 | 337 ft | 21 kts | 28° |
| 2026-05-07 20:42 | 41.28907 | 28.70990 | 336 ft | 24 kts | 28° |
| 2026-05-07 20:42 | 41.29027 | 28.71100 | 335 ft | 17 kts | 60° |
| 2026-05-07 20:43 | 41.28982 | 28.71166 | 336 ft | 12 kts | 181° |
| 2026-05-07 20:43 | 41.28891 | 28.71161 | 338 ft | 14 kts | 179° |
| 2026-05-07 20:43 | 41.28780 | 28.71165 | 336 ft | 17 kts | 177° |
| 2026-05-07 20:43 | 41.28652 | 28.71167 | 335 ft | 20 kts | 180° |
| 2026-05-07 20:44 | 41.28506 | 28.71171 | 339 ft | 22 kts | 178° |
| 2026-05-07 20:44 | 41.28345 | 28.71174 | 335 ft | 24 kts | 179° |
| 2026-05-07 20:44 | 41.28169 | 28.71179 | 335 ft | 26 kts | 178° |
| 2026-05-07 20:44 | 41.27980 | 28.71183 | 339 ft | 28 kts | 179° |
| 2026-05-07 20:45 | 41.27793 | 28.71187 | 335 ft | 26 kts | 179° |
| 2026-05-07 20:45 | 41.27589 | 28.71193 | 335 ft | 32 kts | 179° |
| 2026-05-07 20:45 | 41.27391 | 28.71196 | 337 ft | 18 kts | 178° |
| 2026-05-07 20:45 | 41.27240 | 28.71201 | 336 ft | 25 kts | 179° |
| 2026-05-07 20:46 | 41.27045 | 28.71205 | 336 ft | 31 kts | 179° |
| 2026-05-07 20:46 | 41.26855 | 28.71211 | 337 ft | 13 kts | 172° |
| 2026-05-07 20:46 | 41.26787 | 28.71318 | 335 ft | 20 kts | 98° |
| 2026-05-07 20:46 | 41.26787 | 28.71543 | 336 ft | 28 kts | 88° |
| 2026-05-07 20:47 | 41.26775 | 28.71690 | 335 ft | 13 kts | 128° |
| 2026-05-07 20:47 | 41.26708 | 28.71798 | 337 ft | 18 kts | 103° |
| 2026-05-07 20:47 | 41.26706 | 28.71996 | 340 ft | 25 kts | 88° |
| 2026-05-07 20:47 | 41.26709 | 28.72262 | 337 ft | 32 kts | 89° |
| 2026-05-07 20:48 | 41.26713 | 28.72587 | 336 ft | 38 kts | 88° |
| 2026-05-07 20:48 | 41.26715 | 28.72744 | 338 ft | 14 kts | 89° |
| 2026-05-07 20:48 | 41.26717 | 28.72894 | 340 ft | 20 kts | 89° |
| 2026-05-07 20:48 | 41.26726 | 28.73064 | 338 ft | 16 kts | 67° |
| 2026-05-07 20:49 | 41.26835 | 28.73118 | 338 ft | 17 kts | 32° |
| 2026-05-07 20:49 | 41.26868 | 28.73283 | 337 ft | 21 kts | 87° |
| 2026-05-07 20:49 | 41.26862 | 28.73400 | 338 ft | 8 kts | 116° |
| 2026-05-07 20:49 | 41.26806 | 28.73443 | 339 ft | 12 kts | 178° |
| 2026-05-07 20:50 | 41.26794 | 28.73442 | 335 ft | 0 kts | 180° |